North Wichita, Kansas
Current Conditions -  °F | °C
As of 4:54 AM on Saturday 20 Dec 2014 (Local Time) from KAAO Reporting Station
Clear Clear  
Wind Chill: -4°   Ceiling: Unl
Heat Index:   Visibility: 10mi
Dew Point: -1°   Wind: 10mph
Humidity: 92%   Direction: 190°S
Pressure: 30.14"   Gusts: NA
Location:  37.7735°N, 97.3663°W
Report Text: KAAO 201054Z AUTO 19009KT 10SM CLR 01/M01 A3014 RMK AO2 SLP218 T00061006
Loading
Personal Weather Stations






























Interactive Weather Map New forecast layout! Learn more

10-Day Weather Forecast

Advertisements
Track Severe Weather on mobile